BST,Max TemperatureF,Mean TemperatureF,Min TemperatureF,Max Dew PointF,MeanDew PointF,Min DewpointF,Max Humidity, Mean Humidity, Min Humidity, Max Sea Level PressureIn, Mean Sea Level PressureIn, Min Sea Level PressureIn, Max VisibilityMiles, Mean VisibilityMiles, Min VisibilityMiles, Max Wind SpeedMPH, Mean Wind SpeedMPH, Max Gust SpeedMPH,PrecipitationIn, CloudCover, Events, WindDirDegrees
2012-9-1,,,,,,,,,,,,,,,,,,,,,,
2012-9-2,,,,,,,,,,,,,,,,,,,,,,
2012-9-3,68,64,60,57,57,55,82,76,68,30.27,30.22,30.15,6,6,6,17,11,,0.00,2,,259
2012-9-4,64,60,55,52,49,45,82,64,52,30.21,30.18,30.15,6,6,6,22,15,,0.00,2,,275
2012-9-5,64,58,53,50,49,48,88,68,59,30.36,30.34,30.33,6,6,6,13,9,,0.00,3,,281
2012-9-6,62,56,50,54,51,46,88,78,68,30.27,30.18,30.12,6,6,6,26,15,36,0.00,2,Rain,231
2012-9-7,64,62,59,61,59,59,100,91,83,30.15,30.15,30.12,6,6,6,21,16,,0.00,5,Rain,246
2012-9-8,,,,,,,,,,,,,,,,,,,,,,
2012-9-9,,,,,,,,,,,,,,,,,,,,,,
2012-9-10,60,58,57,57,57,55,100,92,88,29.62,29.59,29.56,6,6,6,13,9,,0.00,4,Rain,251
2012-9-11,55,52,48,48,46,45,94,79,67,29.83,29.78,29.71,6,6,6,26,13,40,0.00,3,Rain,261
2012-9-12,57,54,51,52,48,41,94,79,55,29.86,29.80,29.77,6,6,6,15,9,,0.00,3,Rain,298
2012-9-13,57,52,48,54,51,45,100,88,77,30.01,29.93,29.80,6,6,2,22,13,34,0.00,3,,235
2012-9-14,59,55,51,50,50,48,94,81,72,29.83,29.74,29.65,6,6,6,26,20,40,0.00,3,Rain,269
2012-9-15,,,,,,,,,,,,,,,,,,,,,,
2012-9-16,,,,,,,,,,,,,,,,,,,,,,
2012-9-17,59,56,53,50,49,48,88,79,67,29.68,29.67,29.62,6,6,6,24,18,38,0.00,3,Rain,239
2012-9-18,55,52,48,45,42,41,87,68,62,29.89,29.82,29.74,6,6,6,17,13,,0.00,3,Rain,277
2012-9-19,57,50,44,46,45,43,93,75,67,30.09,30.07,30.06,6,6,6,16,7,,0.00,3,,263
2012-9-20,57,52,48,54,51,48,100,92,82,29.98,29.95,29.89,6,6,1,14,6,,0.00,5,Rain,221
2012-9-21,,,,,,,,,,,,,,,,,,,,,,
2012-9-22,,,,,,,,,,,,,,,,,,,,,,
2012-9-23,53,47,41,46,42,37,87,70,62,30.01,29.89,29.77,6,6,6,10,6,,0.00,1,,100
2012-9-24,50,50,50,48,47,46,94,91,87,29.33,29.23,29.15,6,5,4,26,22,47,0.00,6,Rain,60
2012-9-25,51,50,50,50,48,46,100,92,87,28.97,28.87,28.82,6,5,2,16,9,32,0.00,7,Rain,11
2012-9-26,59,55,51,52,50,48,94,77,72,29.50,29.41,29.33,6,6,6,16,11,,0.00,3,,38
2012-9-27,55,52,48,50,48,45,100,88,76,29.74,29.70,29.68,6,6,1,12,4,,0.00,4,,251
2012-9-28,55,53,51,50,48,46,88,82,72,29.68,29.68,29.65,6,6,6,23,15,34,0.00,3,,248
2012-9-29,,,,,,,,,,,,,,,,,,,,,,
2012-9-30,,,,,,,,,,,,,,,,,,,,,,